sensor_id;sensor_type;location;lat;lon;timestamp;P1;durP1;ratioP1;P2;durP2;ratioP2
19384;SDS011;9828;54.122;17.974;2023-05-21T00:02:31;6.35;;;4.90;;
19384;SDS011;9828;54.122;17.974;2023-05-21T00:07:58;5.15;;;4.50;;
19384;SDS011;9828;54.122;17.974;2023-05-21T00:13:19;12.40;;;5.30;;
19384;SDS011;9828;54.122;17.974;2023-05-21T00:18:40;7.00;;;4.57;;
19384;SDS011;9828;54.122;17.974;2023-05-21T00:24:01;6.10;;;4.80;;
19384;SDS011;9828;54.122;17.974;2023-05-21T00:29:22;5.97;;;4.72;;
19384;SDS011;9828;54.122;17.974;2023-05-21T00:34:43;6.90;;;5.28;;
19384;SDS011;9828;54.122;17.974;2023-05-21T00:40:05;6.05;;;4.88;;
19384;SDS011;9828;54.122;17.974;2023-05-21T00:45:31;6.95;;;5.00;;
19384;SDS011;9828;54.122;17.974;2023-05-21T00:50:51;6.18;;;4.90;;
19384;SDS011;9828;54.122;17.974;2023-05-21T00:56:13;8.27;;;5.88;;
19384;SDS011;9828;54.122;17.974;2023-05-21T01:01:34;7.70;;;5.68;;
19384;SDS011;9828;54.122;17.974;2023-05-21T01:06:56;6.88;;;5.05;;
19384;SDS011;9828;54.122;17.974;2023-05-21T01:12:18;5.72;;;4.80;;
19384;SDS011;9828;54.122;17.974;2023-05-21T01:17:40;7.35;;;5.57;;
19384;SDS011;9828;54.122;17.974;2023-05-21T01:23:01;8.05;;;5.45;;
19384;SDS011;9828;54.122;17.974;2023-05-21T01:28:23;5.90;;;4.70;;
19384;SDS011;9828;54.122;17.974;2023-05-21T01:33:46;9.88;;;6.22;;
19384;SDS011;9828;54.122;17.974;2023-05-21T01:39:20;10.63;;;5.70;;
19384;SDS011;9828;54.122;17.974;2023-05-21T01:44:46;6.80;;;4.63;;
19384;SDS011;9828;54.122;17.974;2023-05-21T01:50:08;7.40;;;4.95;;
19384;SDS011;9828;54.122;17.974;2023-05-21T01:55:30;6.03;;;4.80;;
19384;SDS011;9828;54.122;17.974;2023-05-21T02:00:52;5.82;;;4.60;;
19384;SDS011;9828;54.122;17.974;2023-05-21T02:06:14;11.55;;;5.60;;
19384;SDS011;9828;54.122;17.974;2023-05-21T02:11:35;8.93;;;5.63;;
19384;SDS011;9828;54.122;17.974;2023-05-21T02:16:56;6.72;;;4.93;;
19384;SDS011;9828;54.122;17.974;2023-05-21T02:22:17;6.95;;;5.00;;
19384;SDS011;9828;54.122;17.974;2023-05-21T02:27:39;6.88;;;5.07;;
19384;SDS011;9828;54.122;17.974;2023-05-21T02:33:02;5.88;;;4.65;;
19384;SDS011;9828;54.122;17.974;2023-05-21T02:38:23;5.80;;;4.63;;
19384;SDS011;9828;54.122;17.974;2023-05-21T02:43:45;5.93;;;4.88;;
19384;SDS011;9828;54.122;17.974;2023-05-21T02:49:07;7.20;;;4.72;;
19384;SDS011;9828;54.122;17.974;2023-05-21T02:54:28;6.65;;;5.03;;
19384;SDS011;9828;54.122;17.974;2023-05-21T02:59:49;5.88;;;5.13;;
19384;SDS011;9828;54.122;17.974;2023-05-21T03:05:11;6.30;;;4.88;;
19384;SDS011;9828;54.122;17.974;2023-05-21T03:10:33;6.15;;;4.60;;
19384;SDS011;9828;54.122;17.974;2023-05-21T03:15:54;6.32;;;4.88;;
19384;SDS011;9828;54.122;17.974;2023-05-21T03:21:16;6.45;;;5.00;;
19384;SDS011;9828;54.122;17.974;2023-05-21T03:26:37;9.35;;;5.45;;
19384;SDS011;9828;54.122;17.974;2023-05-21T03:31:59;6.15;;;4.88;;
19384;SDS011;9828;54.122;17.974;2023-05-21T03:37:21;7.07;;;4.95;;
19384;SDS011;9828;54.122;17.974;2023-05-21T03:42:43;7.03;;;5.57;;
19384;SDS011;9828;54.122;17.974;2023-05-21T03:48:04;6.07;;;4.70;;
19384;SDS011;9828;54.122;17.974;2023-05-21T03:53:26;8.05;;;6.45;;
19384;SDS011;9828;54.122;17.974;2023-05-21T03:58:47;8.20;;;5.80;;
19384;SDS011;9828;54.122;17.974;2023-05-21T04:04:09;10.90;;;7.97;;
19384;SDS011;9828;54.122;17.974;2023-05-21T04:09:31;10.57;;;7.55;;
19384;SDS011;9828;54.122;17.974;2023-05-21T04:14:53;9.40;;;5.85;;
19384;SDS011;9828;54.122;17.974;2023-05-21T04:20:14;7.35;;;5.93;;
19384;SDS011;9828;54.122;17.974;2023-05-21T04:25:37;9.52;;;5.32;;
19384;SDS011;9828;54.122;17.974;2023-05-21T04:30:59;6.05;;;4.80;;
19384;SDS011;9828;54.122;17.974;2023-05-21T04:36:20;6.47;;;4.15;;
19384;SDS011;9828;54.122;17.974;2023-05-21T04:41:41;7.05;;;4.47;;
19384;SDS011;9828;54.122;17.974;2023-05-21T04:47:04;7.28;;;4.70;;
19384;SDS011;9828;54.122;17.974;2023-05-21T04:52:43;7.93;;;5.15;;
19384;SDS011;9828;54.122;17.974;2023-05-21T04:58:05;6.72;;;4.68;;
19384;SDS011;9828;54.122;17.974;2023-05-21T05:03:28;7.70;;;5.88;;
19384;SDS011;9828;54.122;17.974;2023-05-21T05:08:51;5.28;;;4.32;;
19384;SDS011;9828;54.122;17.974;2023-05-21T05:14:13;6.70;;;4.50;;
19384;SDS011;9828;54.122;17.974;2023-05-21T05:19:36;6.75;;;3.70;;
19384;SDS011;9828;54.122;17.974;2023-05-21T05:24:57;7.10;;;5.90;;
19384;SDS011;9828;54.122;17.974;2023-05-21T05:30:18;14.80;;;10.38;;
19384;SDS011;9828;54.122;17.974;2023-05-21T05:35:40;6.80;;;4.93;;
19384;SDS011;9828;54.122;17.974;2023-05-21T05:41:02;15.95;;;7.65;;
19384;SDS011;9828;54.122;17.974;2023-05-21T05:46:23;13.43;;;6.35;;
19384;SDS011;9828;54.122;17.974;2023-05-21T05:51:44;6.55;;;3.88;;
19384;SDS011;9828;54.122;17.974;2023-05-21T05:57:05;9.27;;;4.68;;
19384;SDS011;9828;54.122;17.974;2023-05-21T06:02:27;6.00;;;4.13;;
19384;SDS011;9828;54.122;17.974;2023-05-21T06:07:49;6.38;;;3.70;;
19384;SDS011;9828;54.122;17.974;2023-05-21T06:13:11;4.90;;;3.88;;
19384;SDS011;9828;54.122;17.974;2023-05-21T06:18:32;5.78;;;4.13;;
19384;SDS011;9828;54.122;17.974;2023-05-21T06:23:53;4.40;;;3.83;;
19384;SDS011;9828;54.122;17.974;2023-05-21T06:29:15;8.07;;;4.45;;
19384;SDS011;9828;54.122;17.974;2023-05-21T06:34:38;4.47;;;3.60;;
19384;SDS011;9828;54.122;17.974;2023-05-21T06:40:00;6.72;;;3.70;;
19384;SDS011;9828;54.122;17.974;2023-05-21T06:45:23;5.80;;;2.85;;
19384;SDS011;9828;54.122;17.974;2023-05-21T06:50:50;6.80;;;3.50;;
19384;SDS011;9828;54.122;17.974;2023-05-21T06:56:11;6.72;;;3.45;;
19384;SDS011;9828;54.122;17.974;2023-05-21T07:01:35;7.07;;;4.03;;
19384;SDS011;9828;54.122;17.974;2023-05-21T07:06:56;10.15;;;3.58;;
19384;SDS011;9828;54.122;17.974;2023-05-21T07:12:17;4.75;;;2.95;;
19384;SDS011;9828;54.122;17.974;2023-05-21T07:17:40;4.03;;;2.78;;
19384;SDS011;9828;54.122;17.974;2023-05-21T07:23:01;5.40;;;3.05;;
19384;SDS011;9828;54.122;17.974;2023-05-21T07:28:23;4.00;;;3.05;;
19384;SDS011;9828;54.122;17.974;2023-05-21T07:33:44;3.83;;;2.90;;
19384;SDS011;9828;54.122;17.974;2023-05-21T07:39:06;7.53;;;3.28;;
19384;SDS011;9828;54.122;17.974;2023-05-21T07:44:29;5.38;;;3.10;;
19384;SDS011;9828;54.122;17.974;2023-05-21T07:49:51;4.70;;;2.90;;
19384;SDS011;9828;54.122;17.974;2023-05-21T07:55:13;4.82;;;3.03;;
19384;SDS011;9828;54.122;17.974;2023-05-21T08:00:41;10.73;;;3.70;;
19384;SDS011;9828;54.122;17.974;2023-05-21T08:06:04;3.15;;;2.35;;
19384;SDS011;9828;54.122;17.974;2023-05-21T08:11:26;5.10;;;2.95;;
19384;SDS011;9828;54.122;17.974;2023-05-21T08:16:48;5.18;;;2.70;;
19384;SDS011;9828;54.122;17.974;2023-05-21T08:22:09;4.43;;;2.72;;
19384;SDS011;9828;54.122;17.974;2023-05-21T08:27:36;3.40;;;2.47;;
19384;SDS011;9828;54.122;17.974;2023-05-21T08:32:57;6.38;;;3.10;;
19384;SDS011;9828;54.122;17.974;2023-05-21T08:38:21;3.67;;;2.55;;
19384;SDS011;9828;54.122;17.974;2023-05-21T08:44:07;5.35;;;2.45;;
19384;SDS011;9828;54.122;17.974;2023-05-21T08:49:31;5.32;;;2.80;;
19384;SDS011;9828;54.122;17.974;2023-05-21T08:54:55;15.07;;;6.13;;
19384;SDS011;9828;54.122;17.974;2023-05-21T09:00:17;4.38;;;2.47;;
19384;SDS011;9828;54.122;17.974;2023-05-21T09:05:41;4.95;;;2.63;;
19384;SDS011;9828;54.122;17.974;2023-05-21T09:11:03;4.65;;;2.60;;
19384;SDS011;9828;54.122;17.974;2023-05-21T09:16:30;5.03;;;2.60;;
19384;SDS011;9828;54.122;17.974;2023-05-21T09:21:51;4.03;;;2.40;;
19384;SDS011;9828;54.122;17.974;2023-05-21T09:27:17;4.50;;;2.33;;
19384;SDS011;9828;54.122;17.974;2023-05-21T09:32:39;6.45;;;2.60;;
19384;SDS011;9828;54.122;17.974;2023-05-21T09:38:01;4.65;;;2.40;;
19384;SDS011;9828;54.122;17.974;2023-05-21T09:43:27;3.30;;;2.33;;
19384;SDS011;9828;54.122;17.974;2023-05-21T09:48:50;4.00;;;2.95;;
19384;SDS011;9828;54.122;17.974;2023-05-21T09:54:12;2.25;;;2.05;;
19384;SDS011;9828;54.122;17.974;2023-05-21T09:59:37;4.13;;;2.70;;
19384;SDS011;9828;54.122;17.974;2023-05-21T10:04:59;2.95;;;2.47;;
19384;SDS011;9828;54.122;17.974;2023-05-21T10:10:20;6.00;;;2.50;;
19384;SDS011;9828;54.122;17.974;2023-05-21T10:15:43;6.22;;;2.47;;
19384;SDS011;9828;54.122;17.974;2023-05-21T10:21:07;5.28;;;2.75;;
19384;SDS011;9828;54.122;17.974;2023-05-21T10:26:28;5.10;;;2.55;;
19384;SDS011;9828;54.122;17.974;2023-05-21T10:31:50;4.38;;;2.55;;
19384;SDS011;9828;54.122;17.974;2023-05-21T10:37:12;5.78;;;2.70;;
19384;SDS011;9828;54.122;17.974;2023-05-21T11:04:44;2.63;;;2.42;;
19384;SDS011;9828;54.122;17.974;2023-05-21T11:27:11;6.38;;;3.00;;
19384;SDS011;9828;54.122;17.974;2023-05-21T11:32:38;5.53;;;2.83;;
19384;SDS011;9828;54.122;17.974;2023-05-21T11:38:20;7.95;;;3.22;;
19384;SDS011;9828;54.122;17.974;2023-05-21T11:43:42;5.32;;;2.65;;
19384;SDS011;9828;54.122;17.974;2023-05-21T11:49:03;5.53;;;3.20;;
19384;SDS011;9828;54.122;17.974;2023-05-21T11:54:25;6.30;;;3.28;;
19384;SDS011;9828;54.122;17.974;2023-05-21T11:59:47;7.68;;;3.47;;
19384;SDS011;9828;54.122;17.974;2023-05-21T12:05:10;5.78;;;2.92;;
19384;SDS011;9828;54.122;17.974;2023-05-21T12:10:32;3.28;;;2.97;;
19384;SDS011;9828;54.122;17.974;2023-05-21T12:15:53;3.35;;;3.00;;
19384;SDS011;9828;54.122;17.974;2023-05-21T12:21:14;3.05;;;2.70;;
19384;SDS011;9828;54.122;17.974;2023-05-21T12:26:36;6.80;;;2.90;;
19384;SDS011;9828;54.122;17.974;2023-05-21T12:32:00;4.65;;;3.25;;
19384;SDS011;9828;54.122;17.974;2023-05-21T12:37:22;3.92;;;3.00;;
19384;SDS011;9828;54.122;17.974;2023-05-21T12:42:45;4.43;;;2.80;;
19384;SDS011;9828;54.122;17.974;2023-05-21T12:48:06;2.88;;;2.53;;
19384;SDS011;9828;54.122;17.974;2023-05-21T13:06:40;5.88;;;2.70;;
19384;SDS011;9828;54.122;17.974;2023-05-21T13:12:02;4.63;;;2.58;;
19384;SDS011;9828;54.122;17.974;2023-05-21T13:17:24;4.00;;;2.47;;
19384;SDS011;9828;54.122;17.974;2023-05-21T13:22:47;7.53;;;2.90;;
19384;SDS011;9828;54.122;17.974;2023-05-21T13:28:09;4.28;;;2.65;;
19384;SDS011;9828;54.122;17.974;2023-05-21T13:33:34;2.85;;;2.55;;
19384;SDS011;9828;54.122;17.974;2023-05-21T13:38:55;3.53;;;2.40;;
19384;SDS011;9828;54.122;17.974;2023-05-21T13:44:16;2.45;;;2.20;;
19384;SDS011;9828;54.122;17.974;2023-05-21T13:49:38;8.02;;;2.80;;
19384;SDS011;9828;54.122;17.974;2023-05-21T13:54:59;3.13;;;2.58;;
19384;SDS011;9828;54.122;17.974;2023-05-21T14:00:20;4.95;;;2.80;;
19384;SDS011;9828;54.122;17.974;2023-05-21T14:05:41;5.30;;;2.58;;
19384;SDS011;9828;54.122;17.974;2023-05-21T14:11:03;5.07;;;3.00;;
19384;SDS011;9828;54.122;17.974;2023-05-21T14:16:24;7.05;;;2.70;;
19384;SDS011;9828;54.122;17.974;2023-05-21T14:21:46;2.50;;;2.30;;
19384;SDS011;9828;54.122;17.974;2023-05-21T14:27:08;3.63;;;2.47;;
19384;SDS011;9828;54.122;17.974;2023-05-21T14:32:29;6.63;;;2.67;;
19384;SDS011;9828;54.122;17.974;2023-05-21T14:37:51;2.88;;;2.47;;
19384;SDS011;9828;54.122;17.974;2023-05-21T14:43:13;4.72;;;3.13;;
19384;SDS011;9828;54.122;17.974;2023-05-21T14:48:34;3.35;;;2.70;;
19384;SDS011;9828;54.122;17.974;2023-05-21T14:53:54;5.22;;;2.70;;
19384;SDS011;9828;54.122;17.974;2023-05-21T14:59:16;3.78;;;2.63;;
19384;SDS011;9828;54.122;17.974;2023-05-21T15:04:38;3.58;;;2.33;;
19384;SDS011;9828;54.122;17.974;2023-05-21T15:09:59;5.85;;;2.30;;
19384;SDS011;9828;54.122;17.974;2023-05-21T15:15:20;4.82;;;3.45;;
19384;SDS011;9828;54.122;17.974;2023-05-21T15:20:41;5.38;;;2.40;;
19384;SDS011;9828;54.122;17.974;2023-05-21T15:26:02;3.25;;;2.35;;
19384;SDS011;9828;54.122;17.974;2023-05-21T15:31:23;6.82;;;3.13;;
19384;SDS011;9828;54.122;17.974;2023-05-21T15:36:45;4.55;;;2.92;;
19384;SDS011;9828;54.122;17.974;2023-05-21T15:42:06;4.35;;;2.85;;
19384;SDS011;9828;54.122;17.974;2023-05-21T15:47:26;4.70;;;1.95;;
19384;SDS011;9828;54.122;17.974;2023-05-21T15:52:47;3.55;;;2.17;;
19384;SDS011;9828;54.122;17.974;2023-05-21T15:58:09;6.07;;;2.53;;
19384;SDS011;9828;54.122;17.974;2023-05-21T16:03:30;4.28;;;3.08;;
19384;SDS011;9828;54.122;17.974;2023-05-21T16:08:52;2.83;;;2.53;;
19384;SDS011;9828;54.122;17.974;2023-05-21T16:14:14;4.63;;;2.28;;
19384;SDS011;9828;54.122;17.974;2023-05-21T16:19:36;3.20;;;2.33;;
19384;SDS011;9828;54.122;17.974;2023-05-21T16:24:57;5.50;;;2.42;;
19384;SDS011;9828;54.122;17.974;2023-05-21T16:30:19;5.18;;;1.92;;
19384;SDS011;9828;54.122;17.974;2023-05-21T16:35:40;5.15;;;2.40;;
19384;SDS011;9828;54.122;17.974;2023-05-21T16:41:02;7.88;;;2.60;;
19384;SDS011;9828;54.122;17.974;2023-05-21T16:46:22;4.63;;;2.70;;
19384;SDS011;9828;54.122;17.974;2023-05-21T16:51:44;3.38;;;2.38;;
19384;SDS011;9828;54.122;17.974;2023-05-21T16:57:04;2.33;;;1.92;;
19384;SDS011;9828;54.122;17.974;2023-05-21T17:02:25;8.57;;;2.65;;
19384;SDS011;9828;54.122;17.974;2023-05-21T17:07:46;4.78;;;2.83;;
19384;SDS011;9828;54.122;17.974;2023-05-21T17:13:08;5.28;;;3.30;;
19384;SDS011;9828;54.122;17.974;2023-05-21T17:18:37;9.95;;;4.40;;
19384;SDS011;9828;54.122;17.974;2023-05-21T17:23:58;6.03;;;3.47;;
19384;SDS011;9828;54.122;17.974;2023-05-21T17:29:19;7.60;;;3.97;;
19384;SDS011;9828;54.122;17.974;2023-05-21T17:34:40;6.13;;;3.38;;
19384;SDS011;9828;54.122;17.974;2023-05-21T17:40:02;3.33;;;2.20;;
19384;SDS011;9828;54.122;17.974;2023-05-21T17:45:24;3.50;;;2.22;;
19384;SDS011;9828;54.122;17.974;2023-05-21T17:50:45;3.42;;;2.38;;
19384;SDS011;9828;54.122;17.974;2023-05-21T17:56:06;5.05;;;3.00;;
19384;SDS011;9828;54.122;17.974;2023-05-21T18:01:30;5.55;;;4.28;;
19384;SDS011;9828;54.122;17.974;2023-05-21T18:06:50;5.15;;;3.60;;
19384;SDS011;9828;54.122;17.974;2023-05-21T18:12:12;5.22;;;2.92;;
19384;SDS011;9828;54.122;17.974;2023-05-21T18:17:33;4.50;;;2.85;;
19384;SDS011;9828;54.122;17.974;2023-05-21T18:22:54;5.20;;;3.00;;
19384;SDS011;9828;54.122;17.974;2023-05-21T18:28:15;6.53;;;3.50;;
19384;SDS011;9828;54.122;17.974;2023-05-21T18:33:36;4.80;;;2.72;;
19384;SDS011;9828;54.122;17.974;2023-05-21T18:38:57;4.07;;;2.88;;
19384;SDS011;9828;54.122;17.974;2023-05-21T18:44:18;5.40;;;2.58;;
19384;SDS011;9828;54.122;17.974;2023-05-21T18:49:39;9.50;;;3.17;;
19384;SDS011;9828;54.122;17.974;2023-05-21T18:55:00;6.03;;;2.95;;
19384;SDS011;9828;54.122;17.974;2023-05-21T19:00:21;5.03;;;2.53;;
19384;SDS011;9828;54.122;17.974;2023-05-21T19:05:42;3.88;;;2.17;;
19384;SDS011;9828;54.122;17.974;2023-05-21T19:11:04;4.85;;;2.33;;
19384;SDS011;9828;54.122;17.974;2023-05-21T19:16:26;3.15;;;2.33;;
19384;SDS011;9828;54.122;17.974;2023-05-21T19:21:47;4.00;;;2.47;;
19384;SDS011;9828;54.122;17.974;2023-05-21T19:27:08;2.40;;;2.05;;
19384;SDS011;9828;54.122;17.974;2023-05-21T19:32:29;2.67;;;2.28;;
19384;SDS011;9828;54.122;17.974;2023-05-21T19:37:51;5.38;;;3.03;;
19384;SDS011;9828;54.122;17.974;2023-05-21T19:43:13;4.38;;;3.03;;
19384;SDS011;9828;54.122;17.974;2023-05-21T19:48:34;3.67;;;2.55;;
19384;SDS011;9828;54.122;17.974;2023-05-21T19:53:56;9.20;;;2.30;;
19384;SDS011;9828;54.122;17.974;2023-05-21T19:59:17;3.13;;;2.20;;
19384;SDS011;9828;54.122;17.974;2023-05-21T20:04:38;4.70;;;2.78;;
19384;SDS011;9828;54.122;17.974;2023-05-21T20:09:59;3.08;;;2.13;;
19384;SDS011;9828;54.122;17.974;2023-05-21T20:15:20;3.30;;;2.30;;
19384;SDS011;9828;54.122;17.974;2023-05-21T20:20:41;3.05;;;2.28;;
19384;SDS011;9828;54.122;17.974;2023-05-21T20:26:02;2.63;;;2.30;;
19384;SDS011;9828;54.122;17.974;2023-05-21T20:31:24;3.90;;;2.30;;
19384;SDS011;9828;54.122;17.974;2023-05-21T20:36:46;3.35;;;2.10;;
19384;SDS011;9828;54.122;17.974;2023-05-21T20:42:07;3.13;;;1.90;;
19384;SDS011;9828;54.122;17.974;2023-05-21T20:47:30;4.10;;;2.20;;
19384;SDS011;9828;54.122;17.974;2023-05-21T20:53:16;6.45;;;2.20;;
19384;SDS011;9828;54.122;17.974;2023-05-21T20:58:37;4.75;;;2.33;;
19384;SDS011;9828;54.122;17.974;2023-05-21T21:03:59;3.80;;;2.03;;
19384;SDS011;9828;54.122;17.974;2023-05-21T21:09:20;2.55;;;2.03;;
19384;SDS011;9828;54.122;17.974;2023-05-21T21:14:41;2.63;;;2.10;;
19384;SDS011;9828;54.122;17.974;2023-05-21T21:20:02;3.30;;;2.33;;
19384;SDS011;9828;54.122;17.974;2023-05-21T21:25:25;4.25;;;2.42;;
19384;SDS011;9828;54.122;17.974;2023-05-21T21:30:46;3.20;;;2.15;;
19384;SDS011;9828;54.122;17.974;2023-05-21T21:36:09;3.42;;;1.88;;
19384;SDS011;9828;54.122;17.974;2023-05-21T21:41:31;1.90;;;1.73;;
19384;SDS011;9828;54.122;17.974;2023-05-21T21:46:52;2.92;;;2.15;;
19384;SDS011;9828;54.122;17.974;2023-05-21T21:52:13;2.90;;;1.90;;
19384;SDS011;9828;54.122;17.974;2023-05-21T21:57:36;2.83;;;2.05;;
19384;SDS011;9828;54.122;17.974;2023-05-21T22:02:58;2.72;;;1.95;;
19384;SDS011;9828;54.122;17.974;2023-05-21T22:08:19;2.22;;;2.00;;
19384;SDS011;9828;54.122;17.974;2023-05-21T22:13:40;3.00;;;2.05;;
19384;SDS011;9828;54.122;17.974;2023-05-21T22:19:02;3.08;;;2.20;;
19384;SDS011;9828;54.122;17.974;2023-05-21T22:24:23;4.50;;;2.00;;
19384;SDS011;9828;54.122;17.974;2023-05-21T22:29:49;4.47;;;2.08;;
19384;SDS011;9828;54.122;17.974;2023-05-21T22:35:11;2.70;;;2.15;;
19384;SDS011;9828;54.122;17.974;2023-05-21T22:40:32;7.22;;;2.30;;
19384;SDS011;9828;54.122;17.974;2023-05-21T22:45:53;2.60;;;2.15;;
19384;SDS011;9828;54.122;17.974;2023-05-21T22:51:15;2.88;;;2.03;;
19384;SDS011;9828;54.122;17.974;2023-05-21T22:56:36;2.75;;;2.20;;
19384;SDS011;9828;54.122;17.974;2023-05-21T23:01:57;2.20;;;1.90;;
19384;SDS011;9828;54.122;17.974;2023-05-21T23:07:18;2.40;;;1.98;;
19384;SDS011;9828;54.122;17.974;2023-05-21T23:12:40;2.67;;;2.17;;
19384;SDS011;9828;54.122;17.974;2023-05-21T23:18:01;3.05;;;2.05;;
19384;SDS011;9828;54.122;17.974;2023-05-21T23:23:23;2.33;;;2.00;;
19384;SDS011;9828;54.122;17.974;2023-05-21T23:28:44;4.65;;;1.95;;
19384;SDS011;9828;54.122;17.974;2023-05-21T23:34:05;7.22;;;2.33;;
19384;SDS011;9828;54.122;17.974;2023-05-21T23:39:26;3.38;;;2.22;;
19384;SDS011;9828;54.122;17.974;2023-05-21T23:44:48;2.75;;;2.42;;
19384;SDS011;9828;54.122;17.974;2023-05-21T23:50:09;3.65;;;2.10;;
19384;SDS011;9828;54.122;17.974;2023-05-21T23:55:30;4.03;;;2.50;;
